Flight Track Log - Related Links

Times and Time Zones

All times are in EDT time to prevent confusion due to time zone crossing. See the ASQ6092 flight status page for this flight to view local times or setup timezone preferences in your user account.

Time Position Orientation Groundspeed Altitude Reporting Facility
EDT Latitude Longitude Course Direction KTS MPH feet Rate Location/Type
Tue 09:53:17 AM 41.9500 -87.9000 132° Southeast 148 170 1,800  Level Chicago TRACON
Tue 09:54:17 AM 41.9167 -87.8500 132° Southeast 239 275 3,400 1,272 Climbing Chicago TRACON
Tue 09:55:48 AM 41.9261 -87.7056 85° East 291 335 5,000 1,294 Climbing Chicago Center
Tue 09:56:50 AM 41.9333 -87.5983 85° East 291 335 6,700 2,177 Climbing Chicago Center
Tue 09:57:52 AM 41.9461 -87.4639 83° East 299 344 9,500 2,419 Climbing Chicago Center
Tue 09:58:54 AM 41.9553 -87.3411 84° East 325 374 11,700 2,032 Climbing Chicago Center
Tue 09:59:56 AM 41.9650 -87.2178 84° East 333 383 13,700 1,488 Climbing Chicago Center
Tue 10:00:59 AM 41.9744 -87.0850 84° East 359 413 14,800 1,056 Climbing Chicago Center
Tue 10:02:01 AM 41.9850 -86.9419 84° East 383 441 15,900 1,113 Climbing Chicago Center
Tue 10:03:03 AM 41.9700 -86.7642 96° East 403 464 17,100 1,016 Climbing Chicago Center
Tue 10:04:05 AM 41.9456 -86.6264 103° East 410 472 18,000 919 Climbing Chicago Center
Tue 10:05:07 AM 41.9186 -86.4728 103° East 423 487 19,000 1,016 Climbing Chicago Center
Tue 10:06:09 AM 41.8919 -86.3175 103° East 427 491 20,100 1,210 Climbing Chicago Center
Tue 10:07:11 AM 41.8583 -86.1275 103° East 437 503 21,500 1,452 Climbing Chicago Center
Tue 10:08:13 AM 41.8303 -85.9736 104° East 426 490 23,100 1,500 Climbing Chicago Center
Tue 10:09:15 AM 41.8039 -85.8239 103° East 417 480 24,600 1,452 Climbing Chicago Center
Tue 10:10:17 AM 41.7772 -85.6769 104° East 407 468 26,100 1,452 Climbing Chicago Center
Tue 10:11:19 AM 41.7325 -85.5439 114° Southeast 391 450 27,600 1,500 Climbing Chicago Center
Tue 10:12:21 AM 41.6900 -85.3969 111° Southeast 383 441 29,200 1,355 Climbing Chicago Center
Tue 10:13:23 AM 41.6725 -85.2672 100° East 374 430 30,400 1,065 Climbing Chicago Center
Tue 10:14:25 AM 41.6528 -85.1258 101° East 382 440 31,400 1,021 Climbing Chicago Center
Tue 10:14:57 AM 41.6417 -85.0406 100° East 385 443 32,000 1,043 Climbing Cleveland Center
Tue 10:15:57 AM 41.6244 -84.8975 99° East 385 443 33,000 652 Climbing Cleveland Center
Tue 10:16:29 AM 41.6147 -84.8089 98° East 399 459 33,000 383 Level Chicago Center
Tue 10:17:31 AM 41.6172 -84.6514 89° East 424 488 33,600 818 Climbing Chicago Center
Tue 10:17:57 AM 41.6272 -84.5922 77° East 412 474 34,200 977 Climbing Cleveland Center
Tue 10:18:57 AM 41.6531 -84.4436 77° East 412 474 35,000 400 Climbing Cleveland Center
Tue 10:19:57 AM 41.7075 -84.3078 62° Northeast 397 457 35,000  Level Cleveland Center
Tue 10:20:57 AM 41.7708 -84.1583 60° Northeast 402 463 35,000  Level Cleveland Center
Tue 10:21:57 AM 41.8292 -84.0222 60° Northeast 409 471 35,000  Level Cleveland Center
Tue 10:22:57 AM 41.8892 -83.8914 58° Northeast 415 478 35,000  Level Cleveland Center
Tue 10:23:57 AM 41.9450 -83.7603 60° Northeast 410 472 35,000  Level Cleveland Center
Tue 10:24:57 AM 42.0053 -83.6208 60° Northeast 416 479 35,000  Level Cleveland Center
Tue 10:25:57 AM 42.0606 -83.4947 59° Northeast 416 479 35,000  Level Cleveland Center
Tue 10:26:57 AM 42.1225 -83.3519 60° Northeast 421 484 35,000  Level Cleveland Center
Tue 10:27:57 AM 42.1819 -83.2117 60° Northeast 421 484 35,000  Level Cleveland Center
Tue 10:28:57 AM 42.2414 -83.0739 60° Northeast 421 484 35,000  Level Cleveland Center
Tue 10:29:57 AM 42.2986 -82.9383 60° Northeast 421 484 35,000  Level Cleveland Center
Tue 10:30:57 AM 42.3553 -82.8058 60° Northeast 415 478 35,000  Level Cleveland Center
Tue 10:31:57 AM 42.4119 -82.6700 60° Northeast 410 472 35,000  Level Cleveland Center
Tue 10:32:57 AM 42.4708 -82.5339 60° Northeast 410 472 35,000  Level Cleveland Center
Tue 10:33:57 AM 42.5294 -82.3919 61° Northeast 415 478 35,000  Level Cleveland Center
Tue 10:34:57 AM 42.5878 -82.2556 60° Northeast 415 478 35,000  Level Cleveland Center
Tue 10:35:57 AM 42.6417 -82.1214 61° Northeast 410 472 35,000  Level Cleveland Center
Tue 10:36:57 AM 42.6997 -81.9844 60° Northeast 410 472 35,000  Level Cleveland Center
Tue 10:37:57 AM 42.7575 -81.8414 61° Northeast 415 478 35,000  Level Cleveland Center
Tue 10:38:57 AM 42.8153 -81.7011 61° Northeast 420 483 35,000  Level Cleveland Center
Tue 10:39:57 AM 42.8708 -81.5633 61° Northeast 415 478 35,000  Level Cleveland Center
Tue 10:40:12 AM 42.8833 -81.5000 75° East 420 483 35,000  Level Toronto Center
Tue 10:41:12 AM 42.9333 -81.3667 63° Northeast 410 472 35,000  Level Toronto Center
Tue 10:42:12 AM 42.9833 -81.2333 63° Northeast 410 472 35,000  Level Toronto Center
Tue 10:43:12 AM 43.0333 -81.1000 63° Northeast 410 472 35,000  Level Toronto Center
Tue 10:44:12 AM 43.1000 -80.9500 59° Northeast 420 483 35,000  Level Toronto Center
Tue 10:45:12 AM 43.1500 -80.8167 63° Northeast 420 483 35,000  Level Toronto Center
Tue 10:46:12 AM 43.2333 -80.6667 53° Northeast 430 495 35,000  Level Toronto Center
Tue 10:47:12 AM 43.2833 -80.5333 63° Northeast 430 495 35,000  Level Toronto Center
Tue 10:48:12 AM 43.3333 -80.3833 65° Northeast 420 483 35,000  Level Toronto Center
Tue 10:49:12 AM 43.4000 -80.2500 55° Northeast 420 483 35,000  Level Toronto Center
Tue 10:50:12 AM 43.4500 -80.1167 63° Northeast 410 472 35,000  Level Toronto Center
Tue 10:51:12 AM 43.5000 -79.9833 63° Northeast 420 483 35,000  Level Toronto Center
Tue 10:52:12 AM 43.5667 -79.8167 61° Northeast 420 483 35,000  Level Toronto Center
Tue 10:53:12 AM 43.6167 -79.7000 59° Northeast 420 483 35,000  Level Toronto Center
Tue 10:54:12 AM 43.6667 -79.5333 67° East 420 483 35,000  Level Toronto Center
Tue 10:55:12 AM 43.7167 -79.4000 63° Northeast 420 483 35,000  Level Toronto Center
Tue 10:56:12 AM 43.7833 -79.2333 61° Northeast 420 483 35,000  Level Toronto Center
Tue 10:57:12 AM 43.8333 -79.1167 59° Northeast 420 483 35,000  Level Toronto Center
Tue 10:58:12 AM 43.8833 -78.9667 65° Northeast 420 483 35,000  Level Toronto Center
Tue 10:59:12 AM 43.9500 -78.8167 58° Northeast 430 495 35,000  Level Toronto Center
Tue 11:00:12 AM 44.0000 -78.6667 65° Northeast 440 506 35,000  Level Toronto Center
Tue 11:01:12 AM 44.0667 -78.5167 58° Northeast 440 506 35,000  Level Toronto Center
Tue 11:02:12 AM 44.1000 -78.3833 71° East 440 506 35,000 -350 Level Toronto Center
Tue 11:03:12 AM 44.1667 -78.2167 61° Northeast 440 506 34,300 -650 Descending Toronto Center
Tue 11:04:12 AM 44.2167 -78.0667 65° Northeast 440 506 33,700 -600 Descending Toronto Center
Tue 11:05:12 AM 44.2833 -77.9167 58° Northeast 430 495 33,100 -600 Descending Toronto Center
Tue 11:06:12 AM 44.3333 -77.7667 65° Northeast 430 495 32,500 -650 Descending Toronto Center
Tue 11:07:12 AM 44.4000 -77.6000 61° Northeast 450 518 31,800 -1,150 Descending Toronto Center
Tue 11:08:12 AM 44.4500 -77.4667 62° Northeast 450 518 30,200 -2,100 Descending Toronto Center
Tue 11:09:12 AM 44.5000 -77.3167 65° Northeast 440 506 27,600 -2,667 Descending Toronto Center
Tue 11:09:42 AM 44.5333 -77.2667 47° Northeast 440 506 26,200 -2,720 Descending Montreal Center
Tue 11:11:42 AM 44.6500 -76.9500 63° Northeast 450 518 20,800 -2,200 Descending Montreal Center
Tue 11:12:42 AM 44.7167 -76.8167 55° Northeast 420 483 19,600 -1,150 Descending Montreal Center
Tue 11:13:42 AM 44.7833 -76.6833 55° Northeast 420 483 18,500 -1,200 Descending Montreal Center
Tue 11:14:12 AM 44.8000 -76.5833 77° East 420 483 17,800 -2,400 Descending Toronto Center
Tue 11:15:12 AM 44.8833 -76.4500 49° Northeast 410 472 14,900 -2,250 Descending Toronto Center
Tue 11:16:12 AM 44.9333 -76.3333 59° Northeast 370 426 13,300 -1,467 Descending Toronto Center
Tue 11:16:42 AM 44.9667 -76.3167 19° North 370 426 12,700 -1,333 Descending Montreal Center
Tue 11:17:42 AM 45.0333 -76.2000 51° Northeast 320 368 11,300 -1,450 Descending Montreal Center
Tue 11:18:42 AM 45.0667 -76.1167 60° Northeast 290 334 9,800 -1,550 Descending Montreal Center
Tue 11:19:42 AM 45.1167 -76.0167 55° Northeast 270 311 8,200 -900 Descending Montreal Center
Tue 11:20:42 AM 45.1667 -75.9500 43° Northeast 280 322 8,000 -150 Descending Montreal Center
Tue 11:21:42 AM 45.1833 -75.8500 77° East 240 276 7,900 -800 Descending Montreal Center
Tue 11:22:42 AM 45.1667 -75.7500 103° East 240 276 6,400 -1,100 Descending Montreal Center
Tue 11:23:42 AM 45.2000 -75.6667 60° Northeast 230 265 5,700 -1,100 Descending Montreal Center
Tue 11:24:42 AM 45.2333 -75.5833 60° Northeast 240 276 4,200 -900 Descending Montreal Center
Tue 11:25:42 AM 45.2833 -75.5167 43° Northeast 220 253 3,900 -550 Descending Montreal Center
Tue 11:26:42 AM 45.3000 -75.4500 70° East 220 253 3,100 -400 Descending Montreal Center
Tue 11:27:42 AM 45.3500 -75.3667 49° Northeast 220 253 3,100 -50 Level Montreal Center
Tue 11:28:42 AM 45.4000 -75.4000 335° Northwest 210 242 3,000  Descending Montreal Center
Tue 11:29:42 AM 45.3833 -75.4667 250° West 190 219 3,100 -300 Climbing Montreal Center
Tue 11:30:42 AM 45.3667 -75.5167 245° Southwest 160 184 2,400 -650 Descending Montreal Center
Tue 11:31:42 AM 45.3500 -75.5667 245° Southwest 130 150 1,800 -650 Descending Montreal Center
Tue 11:32:42 AM 45.3167 -75.6167 227° Southwest 130 150 1,100 -650 Descending Montreal Center
Tue 11:33:42 AM 45.3000 -75.6667 245° Southwest 130 150 500 -600 Descending Montreal Center

Login

Don't have an account? Register now (free) for customized features, flight alerts, and more!